createdAt,value
2022-07-25T00:00:00.476Z,25.50
2022-07-25T00:02:30.160Z,25.40
2022-07-25T00:04:58.927Z,25.30
2022-07-25T00:07:28.286Z,25.30
2022-07-25T00:09:56.872Z,25.20
2022-07-25T00:12:25.629Z,25.20
2022-07-25T00:14:54.282Z,25.10
2022-07-25T00:17:22.878Z,25.10
2022-07-25T00:19:51.482Z,25.00
2022-07-25T00:22:20.060Z,24.90
2022-07-25T00:24:48.730Z,24.80
2022-07-25T00:27:17.448Z,24.80
2022-07-25T00:29:46.100Z,24.70
2022-07-25T00:32:14.862Z,24.70
2022-07-25T00:34:43.611Z,24.50
2022-07-25T00:37:12.377Z,24.60
2022-07-25T00:39:40.960Z,24.50
2022-07-25T00:42:09.546Z,24.50
2022-07-25T00:44:38.511Z,24.50
2022-07-25T00:47:07.345Z,24.50
2022-07-25T00:49:35.995Z,24.50
2022-07-25T00:52:04.844Z,24.40
2022-07-25T00:54:34.056Z,24.40
2022-07-25T00:57:02.715Z,24.40
2022-07-25T00:59:31.907Z,24.40
2022-07-25T01:02:03.943Z,24.30
2022-07-25T01:04:32.104Z,24.30
2022-07-25T01:07:01.649Z,24.30
2022-07-25T01:09:30.702Z,24.30
2022-07-25T01:11:59.274Z,24.20
2022-07-25T01:14:27.873Z,24.30
2022-07-25T01:16:56.450Z,24.20
2022-07-25T01:19:25.033Z,24.30
2022-07-25T01:21:55.265Z,24.30
2022-07-25T01:24:23.941Z,24.40
2022-07-25T01:26:52.601Z,24.30
2022-07-25T01:29:21.201Z,24.30
2022-07-25T01:31:49.790Z,24.30
2022-07-25T01:34:18.369Z,24.30
2022-07-25T01:36:47.034Z,24.30
2022-07-25T01:39:15.759Z,24.30
2022-07-25T01:41:44.445Z,24.30
2022-07-25T01:44:13.014Z,24.20
2022-07-25T01:46:41.636Z,24.10
2022-07-25T01:49:10.313Z,24.20
2022-07-25T01:51:38.940Z,24.20
2022-07-25T01:54:10.330Z,24.10
2022-07-25T01:56:37.761Z,24.10
2022-07-25T01:59:07.765Z,24.10
2022-07-25T02:01:37.201Z,24.10
2022-07-25T02:04:06.104Z,24.10
2022-07-25T02:06:35.263Z,24.10
2022-07-25T02:09:05.096Z,24.10
2022-07-25T02:11:33.770Z,24.00
2022-07-25T02:14:02.548Z,24.10
2022-07-25T02:16:31.544Z,24.00
2022-07-25T02:19:00.145Z,24.10
2022-07-25T02:21:29.115Z,24.10
2022-07-25T02:23:57.697Z,24.00
2022-07-25T02:26:26.450Z,24.00
2022-07-25T02:28:55.102Z,24.00
2022-07-25T02:31:23.820Z,24.00
2022-07-25T02:33:52.465Z,24.00
2022-07-25T02:36:21.206Z,23.90
2022-07-25T02:38:50.473Z,23.90
2022-07-25T02:41:19.064Z,23.90
2022-07-25T02:43:47.656Z,23.80
2022-07-25T02:46:16.892Z,23.70
2022-07-25T02:48:45.550Z,23.80
2022-07-25T02:51:14.346Z,23.70
2022-07-25T02:53:59.047Z,23.70
2022-07-25T02:56:14.104Z,23.70
2022-07-25T02:58:43.390Z,23.60
2022-07-25T03:01:12.200Z,23.60
2022-07-25T03:03:41.025Z,23.60
2022-07-25T03:06:09.718Z,23.60
2022-07-25T03:08:38.382Z,23.50
2022-07-25T03:11:06.982Z,23.50
2022-07-25T03:13:35.568Z,23.50
2022-07-25T03:16:04.439Z,23.50
2022-07-25T03:18:33.003Z,23.50
2022-07-25T03:21:01.695Z,23.40
2022-07-25T03:23:30.996Z,23.40
2022-07-25T03:25:59.986Z,23.50
2022-07-25T03:28:29.008Z,23.40
2022-07-25T03:30:58.078Z,23.40
2022-07-25T03:33:26.737Z,23.40
2022-07-25T03:35:56.495Z,23.30
2022-07-25T03:38:25.086Z,23.30
2022-07-25T03:40:53.668Z,23.40
2022-07-25T03:43:22.277Z,23.30
2022-07-25T03:45:50.932Z,23.30
2022-07-25T03:48:19.562Z,23.30
2022-07-25T03:50:48.159Z,23.30
2022-07-25T03:53:17.286Z,23.30
2022-07-25T03:55:45.871Z,23.20
2022-07-25T03:58:14.575Z,23.20
2022-07-25T04:00:43.334Z,23.20
2022-07-25T04:03:12.450Z,23.20
2022-07-25T04:05:45.515Z,23.20
2022-07-25T04:08:11.304Z,23.10
2022-07-25T04:10:39.891Z,23.10
2022-07-25T04:13:08.551Z,23.10
2022-07-25T04:15:37.138Z,23.10
2022-07-25T04:18:07.246Z,23.10
2022-07-25T04:20:37.614Z,23.10
2022-07-25T04:23:06.180Z,23.10
2022-07-25T04:25:35.763Z,23.20
2022-07-25T04:28:04.461Z,23.10
2022-07-25T04:30:33.176Z,23.10
2022-07-25T04:33:01.770Z,23.20
2022-07-25T04:35:30.420Z,23.20
2022-07-25T04:37:59.015Z,23.30
2022-07-25T04:40:27.607Z,23.30
2022-07-25T04:43:33.506Z,23.50
2022-07-25T04:46:02.164Z,23.30
2022-07-25T04:48:31.454Z,23.50
2022-07-25T04:50:59.989Z,23.60
2022-07-25T04:53:28.906Z,23.60
2022-07-25T04:55:57.490Z,23.70
2022-07-25T04:58:26.092Z,23.90
2022-07-25T05:00:54.812Z,24.10
2022-07-25T05:03:23.354Z,24.10
2022-07-25T05:05:52.302Z,24.20
2022-07-25T05:08:20.875Z,24.20
2022-07-25T05:10:49.533Z,24.20
2022-07-25T05:13:18.287Z,24.20
2022-07-25T05:15:46.848Z,24.20
2022-07-25T05:18:15.523Z,24.20
2022-07-25T05:20:44.091Z,24.30
2022-07-25T05:23:12.673Z,24.20
2022-07-25T05:25:41.277Z,24.20
2022-07-25T05:28:09.843Z,24.20
2022-07-25T05:30:40.054Z,24.20
2022-07-25T05:33:08.945Z,24.30
2022-07-25T05:35:37.607Z,24.40
2022-07-25T05:38:07.730Z,24.40
2022-07-25T05:40:36.399Z,24.70
2022-07-25T05:43:05.009Z,24.50
2022-07-25T05:45:33.662Z,24.60
2022-07-25T05:48:02.251Z,24.60
2022-07-25T05:50:30.861Z,24.60
2022-07-25T05:52:59.431Z,24.60
2022-07-25T05:55:28.103Z,24.70
2022-07-25T05:57:56.765Z,24.70
2022-07-25T06:00:25.478Z,24.90
2022-07-25T06:02:54.396Z,25.00
2022-07-25T06:05:23.108Z,25.20
2022-07-25T06:07:51.683Z,25.40
2022-07-25T06:10:20.527Z,25.40
2022-07-25T06:12:49.117Z,25.50
2022-07-25T06:15:22.821Z,25.50
2022-07-25T06:17:48.805Z,25.70
2022-07-25T06:20:17.407Z,25.80
2022-07-25T06:22:46.045Z,25.80
2022-07-25T06:25:15.107Z,25.80
2022-07-25T06:27:44.049Z,25.80
2022-07-25T06:30:19.713Z,25.80
2022-07-25T06:32:43.509Z,25.80
2022-07-25T06:35:12.097Z,26.30
2022-07-25T06:37:40.867Z,26.20
2022-07-25T06:40:10.184Z,26.40
2022-07-25T06:42:46.446Z,26.50
2022-07-25T06:45:16.430Z,26.70
2022-07-25T06:47:46.048Z,26.90
2022-07-25T06:50:21.096Z,27.00
2022-07-25T06:52:49.574Z,27.00
2022-07-25T06:55:18.214Z,27.00
2022-07-25T06:57:47.158Z,27.00
2022-07-25T07:00:15.981Z,27.00
2022-07-25T07:02:59.707Z,27.10
2022-07-25T07:05:34.373Z,27.20
2022-07-25T07:08:03.818Z,27.30
2022-07-25T07:10:32.523Z,27.40
2022-07-25T07:13:12.513Z,27.40
2022-07-25T07:15:42.823Z,27.40
2022-07-25T07:18:11.381Z,27.50
2022-07-25T07:20:40.135Z,27.50
2022-07-25T07:23:08.743Z,27.50
2022-07-25T07:25:38.764Z,27.60
2022-07-25T07:28:09.028Z,27.70
2022-07-25T07:31:13.371Z,27.70
2022-07-25T07:33:07.901Z,27.90
2022-07-25T07:35:36.494Z,27.90
2022-07-25T07:38:05.287Z,28.00
2022-07-25T07:40:33.886Z,28.10
2022-07-25T07:43:03.688Z,28.20
2022-07-25T07:45:32.417Z,28.30
2022-07-25T07:48:01.014Z,28.40
2022-07-25T07:50:30.098Z,28.50
2022-07-25T07:52:59.122Z,28.60
2022-07-25T07:55:48.069Z,29.20
2022-07-25T07:58:18.503Z,28.80
2022-07-25T08:00:49.332Z,28.90
2022-07-25T08:03:22.380Z,29.00
2022-07-25T08:05:52.030Z,29.10
2022-07-25T08:08:20.955Z,29.20
2022-07-25T08:10:54.476Z,29.30
2022-07-25T08:13:26.526Z,29.30
2022-07-25T08:15:59.377Z,29.40
2022-07-25T08:18:29.613Z,29.50
2022-07-25T08:20:59.036Z,29.50
2022-07-25T08:23:27.782Z,29.50
2022-07-25T08:25:56.330Z,29.40
2022-07-25T08:28:24.927Z,29.20
2022-07-25T08:30:53.885Z,29.20
2022-07-25T08:33:22.840Z,29.10
2022-07-25T08:35:55.947Z,29.10
2022-07-25T08:38:27.061Z,29.00
2022-07-25T08:40:57.499Z,28.90
2022-07-25T08:43:26.109Z,28.90
2022-07-25T08:45:55.859Z,28.90
2022-07-25T08:48:27.282Z,28.80
2022-07-25T08:50:59.351Z,28.80
2022-07-25T08:53:33.138Z,28.70
2022-07-25T08:55:59.853Z,28.60
2022-07-25T08:58:28.648Z,28.60
2022-07-25T09:00:59.145Z,28.50
2022-07-25T09:03:28.423Z,28.50
2022-07-25T09:05:56.949Z,28.60
2022-07-25T09:08:25.527Z,28.60
2022-07-25T09:10:55.000Z,28.70
2022-07-25T09:13:23.828Z,28.70
2022-07-25T09:15:56.589Z,28.80
2022-07-25T09:18:27.309Z,28.80
2022-07-25T09:21:01.597Z,28.80
2022-07-25T09:23:33.339Z,28.80
2022-07-25T09:26:09.912Z,28.90
2022-07-25T09:31:55.225Z,29.30
2022-07-25T09:34:41.646Z,29.40
2022-07-25T09:37:15.614Z,29.40
2022-07-25T09:39:49.876Z,29.30
2022-07-25T09:42:26.808Z,29.20
2022-07-25T09:45:01.470Z,29.20
2022-07-25T09:47:31.668Z,29.20
2022-07-25T09:50:02.256Z,29.10
2022-07-25T09:52:30.144Z,29.00
2022-07-25T09:54:58.807Z,28.90
2022-07-25T09:57:28.746Z,28.80
2022-07-25T10:09:58.209Z,28.70
2022-07-25T10:12:26.874Z,28.00
2022-07-25T10:15:10.375Z,27.80
2022-07-25T10:17:40.740Z,27.70
2022-07-25T10:20:11.405Z,27.60
2022-07-25T18:39:21.490Z,27.10
2022-07-25T18:41:50.312Z,27.20
2022-07-25T18:44:20.113Z,27.10
2022-07-25T18:46:49.277Z,27.00
2022-07-25T18:49:17.964Z,26.90
2022-07-25T18:51:46.715Z,26.80
2022-07-25T18:54:15.375Z,26.70
2022-07-25T18:56:44.127Z,26.60
2022-07-25T18:59:12.853Z,26.50
2022-07-25T19:01:41.550Z,26.40
2022-07-25T19:04:10.629Z,26.40
2022-07-25T19:06:39.531Z,26.30
2022-07-25T19:09:09.081Z,26.20
2022-07-25T19:11:42.144Z,26.10
2022-07-25T19:14:08.612Z,25.90
2022-07-25T19:16:37.689Z,25.90
2022-07-25T19:19:06.942Z,25.70
2022-07-25T19:21:36.213Z,25.60
2022-07-25T19:24:05.681Z,25.50
2022-07-25T19:26:34.420Z,25.40
2022-07-25T19:29:03.075Z,25.30
2022-07-25T19:31:31.819Z,25.30
2022-07-25T19:34:00.480Z,25.20
2022-07-25T19:36:29.096Z,25.20
2022-07-25T19:38:57.706Z,25.10
2022-07-25T19:41:26.361Z,25.00
2022-07-25T19:43:55.182Z,25.00
2022-07-25T19:46:24.906Z,25.00
2022-07-25T19:48:53.467Z,24.90
2022-07-25T19:51:22.044Z,24.80
2022-07-25T19:53:50.635Z,24.80
2022-07-25T19:56:19.301Z,24.80
2022-07-25T19:58:48.159Z,24.70
2022-07-25T20:01:17.683Z,24.60
2022-07-25T20:03:46.269Z,24.70
2022-07-25T20:06:14.991Z,24.50
2022-07-25T20:08:43.673Z,24.50
2022-07-25T20:11:12.253Z,24.40
2022-07-25T20:13:41.875Z,24.40
2022-07-25T20:16:11.299Z,24.30
2022-07-25T20:18:39.889Z,24.20
2022-07-25T20:21:08.630Z,24.20
2022-07-25T20:23:37.602Z,24.10
2022-07-25T20:26:07.801Z,24.10
2022-07-25T20:28:38.005Z,24.10
2022-07-25T20:31:06.965Z,24.00
2022-07-25T20:33:35.880Z,23.90
2022-07-25T20:36:04.694Z,23.90
2022-07-25T20:38:33.302Z,23.90
2022-07-25T20:41:02.056Z,23.80
2022-07-25T20:43:32.895Z,23.70
2022-07-25T20:46:04.126Z,23.70
2022-07-25T20:48:31.885Z,23.70
2022-07-25T20:51:00.578Z,23.60
2022-07-25T20:53:29.175Z,23.60
2022-07-25T20:55:58.238Z,23.60
2022-07-25T20:58:26.962Z,23.50
2022-07-25T21:00:55.655Z,23.50
2022-07-25T21:03:24.443Z,23.50
2022-07-25T21:05:53.040Z,23.40
2022-07-25T21:08:21.654Z,23.40
2022-07-25T21:10:50.323Z,23.50
2022-07-25T21:13:18.976Z,23.50
2022-07-25T21:15:47.601Z,23.50
2022-07-25T21:18:16.196Z,23.50
2022-07-25T21:20:47.322Z,23.50
2022-07-25T21:23:16.459Z,23.50
2022-07-25T21:25:45.120Z,23.60
2022-07-25T21:28:13.778Z,23.50
2022-07-25T21:30:43.992Z,23.50
2022-07-25T21:33:14.880Z,23.50
2022-07-25T21:35:50.535Z,23.50
2022-07-25T21:38:13.755Z,23.60
2022-07-25T21:40:44.033Z,23.60
2022-07-25T21:43:13.054Z,23.60
2022-07-25T21:45:42.021Z,23.60
2022-07-25T21:48:11.529Z,23.60
2022-07-25T21:50:44.031Z,23.60
2022-07-25T21:53:15.050Z,23.60
2022-07-25T21:55:43.639Z,23.60
2022-07-25T21:58:12.223Z,23.60
2022-07-25T22:00:45.320Z,23.60
2022-07-25T22:03:11.300Z,23.60
2022-07-25T22:05:39.897Z,23.50
2022-07-25T22:08:08.476Z,23.60
2022-07-25T22:10:37.130Z,23.50
2022-07-25T22:13:07.402Z,23.50
2022-07-25T22:15:36.054Z,23.40
2022-07-25T22:18:04.700Z,23.30
2022-07-25T22:20:33.223Z,23.30
2022-07-25T22:23:01.826Z,23.30
2022-07-25T22:25:30.558Z,23.20
2022-07-25T22:27:59.150Z,23.10
2022-07-25T22:30:27.819Z,23.20
2022-07-25T22:32:56.418Z,23.10
2022-07-25T22:35:25.000Z,23.00
2022-07-25T22:37:53.579Z,22.90
2022-07-25T22:40:22.231Z,22.80
2022-07-25T22:42:50.894Z,22.70
2022-07-25T22:45:19.947Z,22.70
2022-07-25T22:47:48.527Z,22.60
2022-07-25T22:50:17.287Z,22.60
2022-07-25T22:52:45.963Z,22.40
2022-07-25T22:55:14.568Z,22.40
2022-07-25T22:57:43.153Z,22.40
2022-07-25T23:00:12.705Z,22.30
2022-07-25T23:02:41.412Z,22.40
2022-07-25T23:05:10.503Z,22.30
2022-07-25T23:07:39.669Z,22.30
2022-07-25T23:10:09.056Z,22.30
2022-07-25T23:12:37.642Z,22.40
2022-07-25T23:15:06.771Z,22.30
2022-07-25T23:17:35.473Z,22.30
2022-07-25T23:20:05.622Z,22.30
2022-07-25T23:22:34.279Z,22.20
2022-07-25T23:25:02.846Z,22.30
2022-07-25T23:27:33.306Z,22.30
2022-07-25T23:30:01.692Z,22.30
2022-07-25T23:32:30.292Z,22.30
2022-07-25T23:34:58.997Z,22.30
2022-07-25T23:37:27.757Z,22.30
2022-07-25T23:39:56.329Z,22.30
2022-07-25T23:42:24.989Z,22.20
2022-07-25T23:44:53.653Z,22.20
2022-07-25T23:47:36.912Z,22.20
2022-07-25T23:49:53.965Z,22.20
2022-07-25T23:52:22.646Z,22.20
2022-07-25T23:54:51.395Z,22.20
2022-07-25T23:57:19.992Z,22.20
2022-07-25T23:59:48.572Z,22.10
